Accueil
METAR-TAF:

METAR-TAF

Aéroports :

Aéroport de Paksé

Paksé, Laos

latitude: 15-08-02N, longitude: 105-46-55E, altitude: 107 m

Observation

Le bulletin a été fait il y a 7 heures et 6 minutes, à 13:00 UTC
Vent 4 kt de sud
Température 33°C
Humidité 49%
Pression 1010 hPa
Visibilité: 7000 m
Nuages épars à une hauteur de 2300 ft
Quelques nuages à une hauteur de 5000 ft
Quelques nuages à une hauteur de 20000 ft

METAR: VLPS 021300Z 18004KT 7000 SCT023 FEW050 FEW200 33/21 Q1010 NOSIG

Heure: 03:06 (20:06 UTC)

Prévision

Le bulletin a été fait il y a 3 heures et 6 minutes, à 17:00 UTC
Prévision valable du 02 à 18 UTC au 03 à 18 UTC
Vent 8 kt de est/sud-est
Visibilité: 5000 m
Nuages épars à une hauteur de 2300 ft
Quelques nuages à une hauteur de 5000 ft
Nuages épars à une hauteur de 20000 ft
brume

TAF: VLPS 021700Z 0218/0318 12008KT 5000 BR SCT023 FEW050 SCT200

Observations et prévisions météorologiques de plus de 4000 aéroports (messages METAR et TAF).

Les stations disponibles sont représentées par des disques jaunes et rouges sur la carte.

Passer la souris dessus pour voir le nom de la station.

Cliquer dessus pour voir les observations et prévisions météorologiques.

Pour changer de carte: cliquez sur les boutons verts avec une croix noire pour zoomer, sur le bouton vert avec un tiret pour effectuer un zoom arrière, ou sur les flèches vertes pour les cartes adjacentes.


METAR-TAF: